RYR7GH EPKK-EPGD
Flight info
| Callsign | RYR7GH |
|---|---|
| Flight time | 0h 56m |
| Altitude | 34000 |
| Route | NAVUR N744 OVBOR N133 GRUDA Z95 OSLOG |
| Aircraft | B38M/M-SDE1FGHILORVWXY/HB1 |
Departure
| Time | 2026-05-05 14:48 |
|---|---|
| Airport | Kraków John Paul II International Airport (EPKK) |
Arrival
| Time | 2026-05-05 15:44 |
|---|---|
| Airport | Gdańsk Lech Wałęsa Airport (EPGD) |
| Time | Latitude | Longitude | Altitude | Speed | Heading |
|---|---|---|---|---|---|
| 2026-05-05 14:28 | 50.07289 | 19.79862 | 802 ft | 0 kts | 167° |
| 2026-05-05 14:40 | 50.07291 | 19.79862 | 802 ft | 2 kts | 167° |
| 2026-05-05 14:41 | 50.07316 | 19.79853 | 802 ft | 4 kts | 167° |
| 2026-05-05 14:41 | 50.07342 | 19.79843 | 802 ft | 4 kts | 161° |
| 2026-05-05 14:41 | 50.07364 | 19.79825 | 802 ft | 4 kts | 126° |
| 2026-05-05 14:41 | 50.07368 | 19.79805 | 802 ft | 1 kts | 77° |
| 2026-05-05 14:42 | 50.07367 | 19.79800 | 802 ft | 0 kts | 77° |
| 2026-05-05 14:44 | 50.07368 | 19.79806 | 802 ft | 2 kts | 77° |
| 2026-05-05 14:45 | 50.07380 | 19.79894 | 802 ft | 15 kts | 77° |
| 2026-05-05 14:45 | 50.07408 | 19.80090 | 802 ft | 20 kts | 78° |
| 2026-05-05 14:45 | 50.07438 | 19.80309 | 802 ft | 18 kts | 77° |
| 2026-05-05 14:45 | 50.07532 | 19.80407 | 802 ft | 18 kts | 17° |
| 2026-05-05 14:46 | 50.07659 | 19.80399 | 802 ft | 20 kts | 347° |
| 2026-05-05 14:46 | 50.07797 | 19.80352 | 803 ft | 15 kts | 348° |
| 2026-05-05 14:46 | 50.07873 | 19.80327 | 803 ft | 11 kts | 348° |
| 2026-05-05 14:46 | 50.07957 | 19.80299 | 802 ft | 14 kts | 348° |
| 2026-05-05 14:47 | 50.08025 | 19.80266 | 802 ft | 3 kts | 294° |
| 2026-05-05 14:47 | 50.08018 | 19.80237 | 802 ft | 5 kts | 244° |
| 2026-05-05 14:47 | 50.07987 | 19.80027 | 803 ft | 54 kts | 258° |
| 2026-05-05 14:47 | 50.07845 | 19.78996 | 803 ft | 137 kts | 258° |
| 2026-05-05 14:48 | 50.07609 | 19.77275 | 1211 ft | 170 kts | 255° |
| 2026-05-05 14:48 | 50.07374 | 19.75499 | 2347 ft | 169 kts | 252° |
| 2026-05-05 14:48 | 50.07111 | 19.73664 | 3142 ft | 184 kts | 253° |
| 2026-05-05 14:48 | 50.06803 | 19.71574 | 3785 ft | 210 kts | 253° |
| 2026-05-05 14:49 | 50.06460 | 19.69220 | 4548 ft | 231 kts | 254° |
| 2026-05-05 14:49 | 50.06331 | 19.66643 | 5426 ft | 253 kts | 276° |
| 2026-05-05 14:49 | 50.07111 | 19.64118 | 6311 ft | 276 kts | 309° |
| 2026-05-05 14:49 | 50.08772 | 19.62463 | 7098 ft | 295 kts | 339° |
| 2026-05-05 14:50 | 50.10802 | 19.61861 | 7298 ft | 297 kts | 347° |
| 2026-05-05 14:50 | 50.12856 | 19.61498 | 7425 ft | 299 kts | 2° |
| 2026-05-05 14:50 | 50.14836 | 19.62465 | 7540 ft | 302 kts | 31° |
| 2026-05-05 14:50 | 50.16481 | 19.64521 | 7701 ft | 304 kts | 41° |
| 2026-05-05 14:51 | 50.18067 | 19.66675 | 7810 ft | 305 kts | 40° |
| 2026-05-05 14:51 | 50.19676 | 19.68855 | 7834 ft | 306 kts | 41° |
| 2026-05-05 14:51 | 50.21283 | 19.71035 | 7824 ft | 306 kts | 41° |
| 2026-05-05 14:51 | 50.22887 | 19.73213 | 7830 ft | 305 kts | 41° |
| 2026-05-05 14:52 | 50.24471 | 19.75368 | 7831 ft | 305 kts | 41° |
| 2026-05-05 14:52 | 50.26078 | 19.77558 | 7827 ft | 306 kts | 41° |
| 2026-05-05 14:52 | 50.27679 | 19.79743 | 7819 ft | 306 kts | 41° |
| 2026-05-05 14:52 | 50.29288 | 19.81939 | 7832 ft | 306 kts | 41° |
| 2026-05-05 14:53 | 50.30897 | 19.84138 | 7836 ft | 308 kts | 41° |
| 2026-05-05 14:53 | 50.32509 | 19.86339 | 8586 ft | 307 kts | 41° |
| 2026-05-05 14:53 | 50.34145 | 19.88533 | 9656 ft | 310 kts | 36° |
| 2026-05-05 14:53 | 50.36087 | 19.89998 | 10323 ft | 323 kts | 11° |
| 2026-05-05 14:54 | 50.38360 | 19.90277 | 10444 ft | 329 kts | 356° |
| 2026-05-05 14:54 | 50.40675 | 19.90267 | 10552 ft | 336 kts | 358° |
| 2026-05-05 14:54 | 50.43016 | 19.90293 | 10681 ft | 337 kts | 358° |
| 2026-05-05 14:54 | 50.45369 | 19.90321 | 10791 ft | 338 kts | 358° |
| 2026-05-05 14:55 | 50.47730 | 19.90353 | 10966 ft | 340 kts | 358° |
| 2026-05-05 14:55 | 50.50078 | 19.90384 | 11461 ft | 342 kts | 358° |
| 2026-05-05 14:55 | 50.52461 | 19.90417 | 11638 ft | 342 kts | 358° |
| 2026-05-05 14:55 | 50.54847 | 19.90451 | 11778 ft | 343 kts | 358° |
| 2026-05-05 14:56 | 50.57236 | 19.90484 | 11819 ft | 343 kts | 358° |
| 2026-05-05 14:56 | 50.59630 | 19.90518 | 11813 ft | 343 kts | 358° |
| 2026-05-05 14:56 | 50.62022 | 19.90551 | 11813 ft | 343 kts | 358° |
| 2026-05-05 14:56 | 50.64381 | 19.90590 | 11898 ft | 344 kts | 358° |
| 2026-05-05 14:57 | 50.66776 | 19.90640 | 12809 ft | 343 kts | 358° |
| 2026-05-05 14:57 | 50.69187 | 19.90690 | 13663 ft | 349 kts | 358° |
| 2026-05-05 14:57 | 50.71640 | 19.90740 | 14412 ft | 353 kts | 358° |
| 2026-05-05 14:57 | 50.74121 | 19.90791 | 15160 ft | 358 kts | 358° |
| 2026-05-05 14:58 | 50.76597 | 19.90833 | 15863 ft | 363 kts | 358° |
| 2026-05-05 14:58 | 50.79139 | 19.90877 | 16578 ft | 367 kts | 357° |
| 2026-05-05 14:58 | 50.81710 | 19.90922 | 17296 ft | 371 kts | 357° |
| 2026-05-05 14:58 | 50.84321 | 19.90967 | 18001 ft | 376 kts | 357° |
| 2026-05-05 14:59 | 50.86950 | 19.91013 | 18596 ft | 380 kts | 357° |
| 2026-05-05 14:59 | 50.89602 | 19.91041 | 19243 ft | 381 kts | 357° |
| 2026-05-05 14:59 | 50.92223 | 19.91057 | 19864 ft | 382 kts | 357° |
| 2026-05-05 14:59 | 50.94894 | 19.91074 | 20491 ft | 384 kts | 357° |
| 2026-05-05 15:00 | 50.97576 | 19.91091 | 21118 ft | 386 kts | 357° |
| 2026-05-05 15:00 | 50.99357 | 19.91213 | 21528 ft | 389 kts | 5° |
| 2026-05-05 15:00 | 51.02797 | 19.93161 | 22393 ft | 397 kts | 30° |
| 2026-05-05 15:00 | 51.05069 | 19.95696 | 22994 ft | 400 kts | 34° |
| 2026-05-05 15:01 | 51.07363 | 19.98208 | 23527 ft | 401 kts | 26° |
| 2026-05-05 15:01 | 51.09960 | 19.99747 | 24031 ft | 398 kts | 8° |
| 2026-05-05 15:01 | 51.12677 | 19.99968 | 24427 ft | 397 kts | 351° |
| 2026-05-05 15:01 | 51.15375 | 19.99049 | 24868 ft | 397 kts | 341° |
| 2026-05-05 15:02 | 51.18048 | 19.97836 | 25317 ft | 400 kts | 340° |
| 2026-05-05 15:02 | 51.20721 | 19.96545 | 25770 ft | 402 kts | 340° |
| 2026-05-05 15:02 | 51.23401 | 19.95206 | 26235 ft | 405 kts | 339° |
| 2026-05-05 15:02 | 51.26102 | 19.93830 | 26686 ft | 408 kts | 339° |
| 2026-05-05 15:03 | 51.28773 | 19.92454 | 27131 ft | 411 kts | 339° |
| 2026-05-05 15:03 | 51.31538 | 19.91022 | 27556 ft | 414 kts | 339° |
| 2026-05-05 15:03 | 51.34258 | 19.89611 | 27974 ft | 417 kts | 339° |
| 2026-05-05 15:03 | 51.37034 | 19.88170 | 28397 ft | 419 kts | 339° |
| 2026-05-05 15:04 | 51.39819 | 19.86723 | 28795 ft | 422 kts | 339° |
| 2026-05-05 15:04 | 51.42629 | 19.85260 | 29212 ft | 425 kts | 339° |
| 2026-05-05 15:04 | 51.45453 | 19.83784 | 29614 ft | 427 kts | 339° |
| 2026-05-05 15:04 | 51.48292 | 19.82298 | 29973 ft | 430 kts | 339° |
| 2026-05-05 15:05 | 51.53996 | 19.79312 | 30664 ft | 434 kts | 339° |
| 2026-05-05 15:05 | 51.56878 | 19.77804 | 31015 ft | 436 kts | 339° |
| 2026-05-05 15:05 | 51.59770 | 19.76288 | 31375 ft | 437 kts | 339° |
| 2026-05-05 15:06 | 51.62674 | 19.74765 | 31811 ft | 436 kts | 339° |
| 2026-05-05 15:06 | 51.65554 | 19.73252 | 32295 ft | 434 kts | 339° |
| 2026-05-05 15:06 | 51.68387 | 19.71760 | 32739 ft | 433 kts | 338° |
| 2026-05-05 15:06 | 51.71245 | 19.70250 | 33174 ft | 432 kts | 339° |
| 2026-05-05 15:07 | 51.74095 | 19.68742 | 33614 ft | 431 kts | 338° |
| 2026-05-05 15:07 | 51.76955 | 19.67227 | 33800 ft | 432 kts | 338° |
| 2026-05-05 15:07 | 51.79802 | 19.65739 | 33788 ft | 429 kts | 340° |
| 2026-05-05 15:08 | 51.85492 | 19.62945 | 33779 ft | 428 kts | 339° |
| 2026-05-05 15:08 | 51.91201 | 19.60130 | 33772 ft | 428 kts | 340° |
| 2026-05-05 15:09 | 51.96874 | 19.57347 | 33770 ft | 427 kts | 339° |
| 2026-05-05 15:09 | 52.02586 | 19.54534 | 33770 ft | 427 kts | 339° |
| 2026-05-05 15:10 | 52.08254 | 19.51736 | 33768 ft | 428 kts | 339° |
| 2026-05-05 15:10 | 52.13961 | 19.48912 | 33774 ft | 428 kts | 339° |
| 2026-05-05 15:11 | 52.19671 | 19.46080 | 33774 ft | 428 kts | 339° |
| 2026-05-05 15:11 | 52.25338 | 19.43261 | 33780 ft | 428 kts | 339° |
| 2026-05-05 15:12 | 52.31045 | 19.40414 | 33780 ft | 427 kts | 339° |
| 2026-05-05 15:12 | 52.36693 | 19.37590 | 33740 ft | 421 kts | 338° |
| 2026-05-05 15:12 | 52.39455 | 19.36206 | 33563 ft | 409 kts | 338° |
| 2026-05-05 15:13 | 52.42162 | 19.34848 | 33188 ft | 404 kts | 338° |
| 2026-05-05 15:13 | 52.44846 | 19.33499 | 32685 ft | 401 kts | 338° |
| 2026-05-05 15:13 | 52.47507 | 19.32161 | 32210 ft | 399 kts | 338° |
| 2026-05-05 15:13 | 52.50154 | 19.30827 | 31762 ft | 396 kts | 338° |
| 2026-05-05 15:14 | 52.52752 | 19.29517 | 31325 ft | 393 kts | 338° |
| 2026-05-05 15:14 | 52.55358 | 19.28202 | 30885 ft | 390 kts | 338° |
| 2026-05-05 15:14 | 52.57956 | 19.26888 | 30380 ft | 390 kts | 338° |
| 2026-05-05 15:14 | 52.60554 | 19.25572 | 29948 ft | 387 kts | 338° |
| 2026-05-05 15:15 | 52.63121 | 19.24270 | 29486 ft | 385 kts | 338° |
| 2026-05-05 15:15 | 52.65640 | 19.22992 | 29049 ft | 381 kts | 338° |
| 2026-05-05 15:15 | 52.68167 | 19.21708 | 28627 ft | 378 kts | 338° |
| 2026-05-05 15:15 | 52.70673 | 19.20433 | 28229 ft | 374 kts | 337° |
| 2026-05-05 15:16 | 52.73155 | 19.19168 | 27835 ft | 371 kts | 337° |
| 2026-05-05 15:16 | 52.75592 | 19.17926 | 27448 ft | 368 kts | 337° |
| 2026-05-05 15:16 | 52.78033 | 19.16680 | 27060 ft | 366 kts | 337° |
| 2026-05-05 15:16 | 52.80449 | 19.15444 | 26678 ft | 363 kts | 337° |
| 2026-05-05 15:17 | 52.82859 | 19.14211 | 26302 ft | 361 kts | 337° |
| 2026-05-05 15:17 | 52.85252 | 19.12985 | 25929 ft | 359 kts | 337° |
| 2026-05-05 15:17 | 52.87638 | 19.11761 | 25552 ft | 357 kts | 337° |
| 2026-05-05 15:17 | 52.90004 | 19.10546 | 25185 ft | 355 kts | 337° |
| 2026-05-05 15:18 | 52.92363 | 19.09333 | 24831 ft | 353 kts | 337° |
| 2026-05-05 15:18 | 52.94679 | 19.08141 | 24465 ft | 352 kts | 337° |
| 2026-05-05 15:18 | 52.97020 | 19.06934 | 24102 ft | 350 kts | 337° |
| 2026-05-05 15:18 | 52.99352 | 19.05732 | 23742 ft | 349 kts | 336° |
| 2026-05-05 15:19 | 53.01647 | 19.04546 | 23376 ft | 348 kts | 336° |
| 2026-05-05 15:19 | 53.03961 | 19.03350 | 22962 ft | 346 kts | 336° |
| 2026-05-05 15:19 | 53.06258 | 19.02161 | 22578 ft | 344 kts | 336° |
| 2026-05-05 15:19 | 53.08515 | 19.00993 | 22233 ft | 341 kts | 336° |
| 2026-05-05 15:20 | 53.10784 | 18.99815 | 21836 ft | 340 kts | 336° |
| 2026-05-05 15:20 | 53.12282 | 18.99038 | 21606 ft | 338 kts | 336° |
| 2026-05-05 15:20 | 53.14522 | 18.97874 | 21272 ft | 335 kts | 337° |
| 2026-05-05 15:20 | 53.16741 | 18.96720 | 20933 ft | 332 kts | 337° |
| 2026-05-05 15:21 | 53.18955 | 18.95567 | 20584 ft | 330 kts | 337° |
| 2026-05-05 15:21 | 53.21148 | 18.94423 | 20208 ft | 329 kts | 337° |
| 2026-05-05 15:21 | 53.23325 | 18.93286 | 19897 ft | 326 kts | 337° |
| 2026-05-05 15:21 | 53.25464 | 18.92169 | 19588 ft | 324 kts | 337° |
| 2026-05-05 15:22 | 53.27611 | 18.91045 | 19249 ft | 322 kts | 337° |
| 2026-05-05 15:22 | 53.29747 | 18.89926 | 18926 ft | 320 kts | 337° |
| 2026-05-05 15:22 | 53.31879 | 18.88807 | 18601 ft | 319 kts | 337° |
| 2026-05-05 15:22 | 53.33973 | 18.87708 | 18274 ft | 318 kts | 337° |
| 2026-05-05 15:23 | 53.36078 | 18.86602 | 17917 ft | 316 kts | 337° |
| 2026-05-05 15:23 | 53.38172 | 18.85501 | 17562 ft | 314 kts | 337° |
| 2026-05-05 15:23 | 53.40254 | 18.84404 | 17229 ft | 311 kts | 337° |
| 2026-05-05 15:23 | 53.42312 | 18.83319 | 16908 ft | 309 kts | 337° |
| 2026-05-05 15:24 | 53.44355 | 18.82242 | 16586 ft | 306 kts | 337° |
| 2026-05-05 15:24 | 53.46384 | 18.81170 | 16264 ft | 304 kts | 337° |
| 2026-05-05 15:24 | 53.48390 | 18.80109 | 15959 ft | 302 kts | 337° |
| 2026-05-05 15:24 | 53.50391 | 18.79051 | 15643 ft | 299 kts | 337° |
| 2026-05-05 15:25 | 53.52376 | 18.78127 | 15304 ft | 305 kts | 346° |
| 2026-05-05 15:25 | 53.54517 | 18.77837 | 14972 ft | 311 kts | 351° |
| 2026-05-05 15:25 | 53.56688 | 18.77607 | 14667 ft | 314 kts | 351° |
| 2026-05-05 15:25 | 53.58874 | 18.77366 | 14358 ft | 314 kts | 351° |
| 2026-05-05 15:26 | 53.61005 | 18.76801 | 14176 ft | 303 kts | 335° |
| 2026-05-05 15:26 | 53.62853 | 18.75203 | 14145 ft | 298 kts | 324° |
| 2026-05-05 15:26 | 53.64670 | 18.73446 | 14083 ft | 300 kts | 326° |
| 2026-05-05 15:26 | 53.66480 | 18.71743 | 14040 ft | 301 kts | 326° |
| 2026-05-05 15:27 | 53.68315 | 18.70034 | 14005 ft | 301 kts | 326° |
| 2026-05-05 15:27 | 53.70152 | 18.68334 | 13956 ft | 301 kts | 326° |
| 2026-05-05 15:27 | 53.71967 | 18.66657 | 13920 ft | 300 kts | 326° |
| 2026-05-05 15:27 | 53.73802 | 18.64965 | 13865 ft | 300 kts | 326° |
| 2026-05-05 15:28 | 53.75636 | 18.63274 | 13822 ft | 300 kts | 326° |
| 2026-05-05 15:28 | 53.77470 | 18.61582 | 13779 ft | 299 kts | 326° |
| 2026-05-05 15:28 | 53.79283 | 18.59844 | 13722 ft | 298 kts | 324° |
| 2026-05-05 15:28 | 53.81061 | 18.58054 | 13678 ft | 297 kts | 324° |
| 2026-05-05 15:29 | 53.82821 | 18.56290 | 13610 ft | 297 kts | 324° |
| 2026-05-05 15:29 | 53.84604 | 18.54506 | 13547 ft | 297 kts | 324° |
| 2026-05-05 15:29 | 53.86386 | 18.52724 | 13495 ft | 297 kts | 324° |
| 2026-05-05 15:29 | 53.88161 | 18.50947 | 13439 ft | 296 kts | 324° |
| 2026-05-05 15:30 | 53.89934 | 18.49171 | 13384 ft | 296 kts | 324° |
| 2026-05-05 15:30 | 53.91710 | 18.47391 | 13320 ft | 296 kts | 324° |
| 2026-05-05 15:30 | 53.93461 | 18.45635 | 13260 ft | 295 kts | 324° |
| 2026-05-05 15:30 | 53.95230 | 18.43858 | 13210 ft | 295 kts | 324° |
| 2026-05-05 15:31 | 53.96998 | 18.42081 | 13117 ft | 295 kts | 324° |
| 2026-05-05 15:31 | 53.98763 | 18.40305 | 12874 ft | 294 kts | 324° |
| 2026-05-05 15:31 | 54.00529 | 18.38527 | 12550 ft | 295 kts | 324° |
| 2026-05-05 15:31 | 54.02287 | 18.36755 | 12257 ft | 293 kts | 325° |
| 2026-05-05 15:32 | 54.04017 | 18.35009 | 11958 ft | 292 kts | 325° |
| 2026-05-05 15:32 | 54.05762 | 18.33245 | 11641 ft | 292 kts | 325° |
| 2026-05-05 15:32 | 54.07516 | 18.31471 | 11322 ft | 292 kts | 325° |
| 2026-05-05 15:32 | 54.09268 | 18.29698 | 11012 ft | 292 kts | 325° |
| 2026-05-05 15:33 | 54.11019 | 18.27923 | 10699 ft | 292 kts | 325° |
| 2026-05-05 15:33 | 54.12746 | 18.26171 | 10391 ft | 292 kts | 325° |
| 2026-05-05 15:33 | 54.14492 | 18.24398 | 10086 ft | 291 kts | 325° |
| 2026-05-05 15:33 | 54.16213 | 18.22648 | 9884 ft | 285 kts | 325° |
| 2026-05-05 15:34 | 54.17900 | 18.20933 | 9548 ft | 279 kts | 325° |
| 2026-05-05 15:34 | 54.19553 | 18.19251 | 9222 ft | 278 kts | 325° |
| 2026-05-05 15:34 | 54.21210 | 18.17561 | 8917 ft | 276 kts | 325° |
| 2026-05-05 15:34 | 54.22853 | 18.15885 | 8625 ft | 273 kts | 326° |
| 2026-05-05 15:35 | 54.24478 | 18.14226 | 8322 ft | 271 kts | 326° |
| 2026-05-05 15:35 | 54.26093 | 18.12575 | 8035 ft | 269 kts | 326° |
| 2026-05-05 15:35 | 54.27694 | 18.10937 | 7745 ft | 267 kts | 326° |
| 2026-05-05 15:35 | 54.29283 | 18.09310 | 7454 ft | 265 kts | 326° |
| 2026-05-05 15:36 | 54.30861 | 18.07693 | 7173 ft | 263 kts | 326° |
| 2026-05-05 15:36 | 54.32404 | 18.06111 | 6904 ft | 261 kts | 326° |
| 2026-05-05 15:36 | 54.33951 | 18.04522 | 6655 ft | 258 kts | 326° |
| 2026-05-05 15:36 | 54.35484 | 18.02947 | 6449 ft | 253 kts | 326° |
| 2026-05-05 15:37 | 54.36975 | 18.01414 | 6324 ft | 245 kts | 326° |
| 2026-05-05 15:37 | 54.38413 | 17.99934 | 6193 ft | 237 kts | 326° |
| 2026-05-05 15:37 | 54.39836 | 17.98641 | 5999 ft | 233 kts | 341° |
| 2026-05-05 15:37 | 54.41451 | 17.98478 | 5700 ft | 236 kts | 10° |
| 2026-05-05 15:38 | 54.43003 | 17.99393 | 5449 ft | 234 kts | 25° |
| 2026-05-05 15:38 | 54.44257 | 18.01162 | 5126 ft | 236 kts | 54° |
| 2026-05-05 15:38 | 54.44906 | 18.03746 | 4804 ft | 238 kts | 80° |
| 2026-05-05 15:38 | 54.44998 | 18.06586 | 4479 ft | 238 kts | 89° |
| 2026-05-05 15:39 | 54.45042 | 18.09384 | 4195 ft | 234 kts | 87° |
| 2026-05-05 15:39 | 54.45105 | 18.12140 | 4001 ft | 227 kts | 87° |
| 2026-05-05 15:39 | 54.45172 | 18.14815 | 3844 ft | 221 kts | 89° |
| 2026-05-05 15:39 | 54.44873 | 18.17329 | 3743 ft | 208 kts | 112° |
| 2026-05-05 15:40 | 54.44350 | 18.19561 | 3658 ft | 195 kts | 112° |
| 2026-05-05 15:40 | 54.43851 | 18.21669 | 3409 ft | 191 kts | 112° |
| 2026-05-05 15:40 | 54.43348 | 18.23778 | 3125 ft | 190 kts | 112° |
| 2026-05-05 15:40 | 54.42847 | 18.25863 | 2867 ft | 187 kts | 112° |
| 2026-05-05 15:41 | 54.42362 | 18.27865 | 2705 ft | 173 kts | 112° |
| 2026-05-05 15:41 | 54.41927 | 18.29653 | 2548 ft | 154 kts | 112° |
| 2026-05-05 15:41 | 54.41516 | 18.31338 | 2472 ft | 153 kts | 112° |
| 2026-05-05 15:41 | 54.41103 | 18.33023 | 2247 ft | 152 kts | 112° |
| 2026-05-05 15:42 | 54.40697 | 18.34683 | 1969 ft | 150 kts | 112° |
| 2026-05-05 15:42 | 54.40301 | 18.36323 | 1710 ft | 148 kts | 111° |
| 2026-05-05 15:42 | 54.39904 | 18.37951 | 1479 ft | 147 kts | 111° |
| 2026-05-05 15:42 | 54.39506 | 18.39571 | 1252 ft | 148 kts | 111° |
| 2026-05-05 15:43 | 54.39100 | 18.41197 | 1051 ft | 147 kts | 111° |
| 2026-05-05 15:43 | 54.38706 | 18.42787 | 818 ft | 146 kts | 110° |
| 2026-05-05 15:43 | 54.38314 | 18.44379 | 616 ft | 146 kts | 111° |
| 2026-05-05 15:43 | 54.37922 | 18.45955 | 466 ft | 137 kts | 110° |
| 2026-05-05 15:44 | 54.37616 | 18.47195 | 462 ft | 74 kts | 112° |
| 2026-05-05 15:44 | 54.37451 | 18.47862 | 473 ft | 59 kts | 113° |
| 2026-05-05 15:44 | 54.37317 | 18.48403 | 487 ft | 26 kts | 113° |
| 2026-05-05 15:44 | 54.37297 | 18.48546 | 495 ft | 10 kts | 74° |
| 2026-05-05 15:45 | 54.37359 | 18.48629 | 491 ft | 13 kts | 24° |
| 2026-05-05 15:45 | 54.37447 | 18.48596 | 486 ft | 16 kts | 298° |
| 2026-05-05 15:45 | 54.37500 | 18.48387 | 484 ft | 22 kts | 293° |
| 2026-05-05 15:45 | 54.37568 | 18.48112 | 475 ft | 28 kts | 293° |
| 2026-05-05 15:46 | 54.37649 | 18.47782 | 468 ft | 32 kts | 293° |
| 2026-05-05 15:46 | 54.37724 | 18.47484 | 465 ft | 22 kts | 293° |
| 2026-05-05 15:46 | 54.37787 | 18.47228 | 462 ft | 22 kts | 293° |
| 2026-05-05 15:46 | 54.37850 | 18.46972 | 462 ft | 24 kts | 293° |
| 2026-05-05 15:47 | 54.37918 | 18.46696 | 462 ft | 23 kts | 292° |
| 2026-05-05 15:47 | 54.37963 | 18.46592 | 462 ft | 14 kts | 343° |
| 2026-05-05 15:47 | 54.38071 | 18.46586 | 462 ft | 12 kts | 309° |
| 2026-05-05 15:47 | 54.38109 | 18.46449 | 459 ft | 14 kts | 292° |
| 2026-05-05 15:48 | 54.38149 | 18.46283 | 462 ft | 13 kts | 292° |
| 2026-05-05 15:48 | 54.38167 | 18.46234 | 462 ft | 3 kts | 336° |
| 2026-05-05 15:48 | 54.38191 | 18.46241 | 462 ft | 3 kts | 24° |
| 2026-05-05 15:48 | 54.38205 | 18.46251 | 462 ft | 1 kts | 23° |
| 2026-05-05 15:49 | 54.38208 | 18.46253 | 462 ft | 0 kts | 23° |